sensor_id;sensor_type;location;lat;lon;timestamp;P1;durP1;ratioP1;P2;durP2;ratioP2
42682;SDS011;28293;50.930;3.464;2024-03-17T00:01:44;12.32;;;9.20;;
42682;SDS011;28293;50.930;3.464;2024-03-17T00:04:09;13.48;;;9.75;;
42682;SDS011;28293;50.930;3.464;2024-03-17T00:06:35;15.20;;;9.75;;
42682;SDS011;28293;50.930;3.464;2024-03-17T00:09:01;14.20;;;9.20;;
42682;SDS011;28293;50.930;3.464;2024-03-17T00:11:31;14.70;;;9.77;;
42682;SDS011;28293;50.930;3.464;2024-03-17T00:14:00;15.43;;;10.13;;
42682;SDS011;28293;50.930;3.464;2024-03-17T00:16:26;15.25;;;10.15;;
42682;SDS011;28293;50.930;3.464;2024-03-17T00:18:52;14.63;;;9.48;;
42682;SDS011;28293;50.930;3.464;2024-03-17T00:21:18;13.40;;;9.43;;
42682;SDS011;28293;50.930;3.464;2024-03-17T00:23:45;15.45;;;10.73;;
42682;SDS011;28293;50.930;3.464;2024-03-17T00:26:14;15.52;;;10.35;;
42682;SDS011;28293;50.930;3.464;2024-03-17T00:28:40;17.92;;;10.70;;
42682;SDS011;28293;50.930;3.464;2024-03-17T00:31:06;18.38;;;10.80;;
42682;SDS011;28293;50.930;3.464;2024-03-17T00:33:34;14.80;;;9.93;;
42682;SDS011;28293;50.930;3.464;2024-03-17T00:36:00;14.55;;;10.25;;
42682;SDS011;28293;50.930;3.464;2024-03-17T00:38:26;14.68;;;10.48;;
42682;SDS011;28293;50.930;3.464;2024-03-17T00:40:52;14.55;;;10.23;;
42682;SDS011;28293;50.930;3.464;2024-03-17T00:43:18;15.77;;;9.90;;
42682;SDS011;28293;50.930;3.464;2024-03-17T00:45:43;21.58;;;16.50;;
42682;SDS011;28293;50.930;3.464;2024-03-17T00:48:16;19.25;;;12.88;;
42682;SDS011;28293;50.930;3.464;2024-03-17T00:50:41;21.30;;;14.95;;
42682;SDS011;28293;50.930;3.464;2024-03-17T00:53:09;22.65;;;16.63;;
42682;SDS011;28293;50.930;3.464;2024-03-17T00:55:35;18.33;;;13.77;;
42682;SDS011;28293;50.930;3.464;2024-03-17T00:58:01;18.60;;;14.60;;
42682;SDS011;28293;50.930;3.464;2024-03-17T01:00:26;18.95;;;12.90;;
42682;SDS011;28293;50.930;3.464;2024-03-17T01:02:52;17.67;;;13.10;;
42682;SDS011;28293;50.930;3.464;2024-03-17T01:05:18;16.27;;;11.38;;
42682;SDS011;28293;50.930;3.464;2024-03-17T01:07:43;13.30;;;10.43;;
42682;SDS011;28293;50.930;3.464;2024-03-17T01:10:09;18.13;;;11.45;;
42682;SDS011;28293;50.930;3.464;2024-03-17T01:12:34;17.73;;;11.70;;
42682;SDS011;28293;50.930;3.464;2024-03-17T01:15:02;15.02;;;10.63;;
42682;SDS011;28293;50.930;3.464;2024-03-17T01:17:29;14.35;;;10.07;;
42682;SDS011;28293;50.930;3.464;2024-03-17T01:19:55;13.75;;;10.23;;
42682;SDS011;28293;50.930;3.464;2024-03-17T01:22:21;14.00;;;10.20;;
42682;SDS011;28293;50.930;3.464;2024-03-17T01:24:47;14.77;;;11.15;;
42682;SDS011;28293;50.930;3.464;2024-03-17T01:27:12;15.88;;;10.60;;
42682;SDS011;28293;50.930;3.464;2024-03-17T01:29:41;14.73;;;10.60;;
42682;SDS011;28293;50.930;3.464;2024-03-17T01:32:09;14.52;;;10.45;;
42682;SDS011;28293;50.930;3.464;2024-03-17T01:34:38;18.30;;;12.80;;
42682;SDS011;28293;50.930;3.464;2024-03-17T01:37:04;16.38;;;12.20;;
42682;SDS011;28293;50.930;3.464;2024-03-17T01:39:30;16.63;;;12.63;;
42682;SDS011;28293;50.930;3.464;2024-03-17T01:41:57;15.88;;;11.70;;
42682;SDS011;28293;50.930;3.464;2024-03-17T01:44:27;19.70;;;12.40;;
42682;SDS011;28293;50.930;3.464;2024-03-17T01:46:54;18.42;;;12.60;;
42682;SDS011;28293;50.930;3.464;2024-03-17T01:49:21;17.23;;;12.10;;
42682;SDS011;28293;50.930;3.464;2024-03-17T01:51:48;16.80;;;13.02;;
42682;SDS011;28293;50.930;3.464;2024-03-17T01:54:15;16.52;;;11.50;;
42682;SDS011;28293;50.930;3.464;2024-03-17T01:56:41;15.25;;;10.95;;
42682;SDS011;28293;50.930;3.464;2024-03-17T01:59:08;16.95;;;10.90;;
42682;SDS011;28293;50.930;3.464;2024-03-17T02:01:35;17.45;;;10.75;;
42682;SDS011;28293;50.930;3.464;2024-03-17T02:04:01;14.43;;;10.07;;
42682;SDS011;28293;50.930;3.464;2024-03-17T02:06:28;16.48;;;10.60;;
42682;SDS011;28293;50.930;3.464;2024-03-17T02:08:54;14.18;;;10.18;;
42682;SDS011;28293;50.930;3.464;2024-03-17T02:11:26;13.88;;;9.35;;
42682;SDS011;28293;50.930;3.464;2024-03-17T02:13:54;14.55;;;10.80;;
42682;SDS011;28293;50.930;3.464;2024-03-17T02:16:21;14.13;;;10.18;;
42682;SDS011;28293;50.930;3.464;2024-03-17T02:18:48;16.35;;;10.68;;
42682;SDS011;28293;50.930;3.464;2024-03-17T02:21:14;12.73;;;9.95;;
42682;SDS011;28293;50.930;3.464;2024-03-17T02:23:41;14.90;;;10.68;;
42682;SDS011;28293;50.930;3.464;2024-03-17T02:26:07;14.50;;;9.95;;
42682;SDS011;28293;50.930;3.464;2024-03-17T02:28:40;14.98;;;10.38;;
42682;SDS011;28293;50.930;3.464;2024-03-17T02:31:07;16.52;;;10.20;;
42682;SDS011;28293;50.930;3.464;2024-03-17T02:33:33;12.88;;;9.63;;
42682;SDS011;28293;50.930;3.464;2024-03-17T02:35:59;15.68;;;9.60;;
42682;SDS011;28293;50.930;3.464;2024-03-17T02:38:25;15.35;;;10.07;;
42682;SDS011;28293;50.930;3.464;2024-03-17T02:41:10;13.77;;;9.55;;
42682;SDS011;28293;50.930;3.464;2024-03-17T02:43:35;13.93;;;9.20;;
42682;SDS011;28293;50.930;3.464;2024-03-17T02:46:01;14.93;;;10.20;;
42682;SDS011;28293;50.930;3.464;2024-03-17T02:48:30;15.82;;;10.13;;
42682;SDS011;28293;50.930;3.464;2024-03-17T02:50:56;14.77;;;9.65;;
42682;SDS011;28293;50.930;3.464;2024-03-17T02:53:22;12.73;;;9.55;;
42682;SDS011;28293;50.930;3.464;2024-03-17T02:55:48;12.90;;;8.95;;
42682;SDS011;28293;50.930;3.464;2024-03-17T02:58:13;12.25;;;9.20;;
42682;SDS011;28293;50.930;3.464;2024-03-17T03:00:39;14.27;;;9.32;;
42682;SDS011;28293;50.930;3.464;2024-03-17T03:03:05;14.35;;;10.30;;
42682;SDS011;28293;50.930;3.464;2024-03-17T03:05:31;13.55;;;8.93;;
42682;SDS011;28293;50.930;3.464;2024-03-17T03:07:56;13.70;;;9.07;;
42682;SDS011;28293;50.930;3.464;2024-03-17T03:10:22;14.90;;;9.80;;
42682;SDS011;28293;50.930;3.464;2024-03-17T03:12:48;13.00;;;9.45;;
42682;SDS011;28293;50.930;3.464;2024-03-17T03:15:14;15.90;;;9.60;;
42682;SDS011;28293;50.930;3.464;2024-03-17T03:17:40;13.40;;;9.40;;
42682;SDS011;28293;50.930;3.464;2024-03-17T03:20:05;13.23;;;9.52;;
42682;SDS011;28293;50.930;3.464;2024-03-17T03:22:32;13.43;;;8.73;;
42682;SDS011;28293;50.930;3.464;2024-03-17T03:24:57;13.02;;;9.20;;
42682;SDS011;28293;50.930;3.464;2024-03-17T03:27:23;13.48;;;9.35;;
42682;SDS011;28293;50.930;3.464;2024-03-17T03:29:49;15.70;;;9.77;;
42682;SDS011;28293;50.930;3.464;2024-03-17T03:32:15;12.93;;;8.95;;
42682;SDS011;28293;50.930;3.464;2024-03-17T03:34:42;16.85;;;11.02;;
42682;SDS011;28293;50.930;3.464;2024-03-17T03:37:08;16.48;;;10.43;;
42682;SDS011;28293;50.930;3.464;2024-03-17T03:39:36;15.02;;;9.38;;
42682;SDS011;28293;50.930;3.464;2024-03-17T03:42:01;11.93;;;8.95;;
42682;SDS011;28293;50.930;3.464;2024-03-17T03:44:27;13.60;;;9.27;;
42682;SDS011;28293;50.930;3.464;2024-03-17T03:46:53;13.82;;;9.32;;
42682;SDS011;28293;50.930;3.464;2024-03-17T03:49:23;13.10;;;9.95;;
42682;SDS011;28293;50.930;3.464;2024-03-17T03:51:52;13.50;;;9.90;;
42682;SDS011;28293;50.930;3.464;2024-03-17T03:54:17;14.05;;;9.98;;
42682;SDS011;28293;50.930;3.464;2024-03-17T03:56:43;15.10;;;10.10;;
42682;SDS011;28293;50.930;3.464;2024-03-17T03:59:09;13.27;;;9.57;;
42682;SDS011;28293;50.930;3.464;2024-03-17T04:01:35;15.52;;;10.02;;
42682;SDS011;28293;50.930;3.464;2024-03-17T04:04:00;15.90;;;9.73;;
42682;SDS011;28293;50.930;3.464;2024-03-17T04:06:26;13.60;;;9.55;;
42682;SDS011;28293;50.930;3.464;2024-03-17T04:08:52;16.60;;;9.82;;
42682;SDS011;28293;50.930;3.464;2024-03-17T04:11:17;15.10;;;10.50;;
42682;SDS011;28293;50.930;3.464;2024-03-17T04:13:43;15.55;;;10.18;;
42682;SDS011;28293;50.930;3.464;2024-03-17T04:16:09;14.63;;;10.40;;
42682;SDS011;28293;50.930;3.464;2024-03-17T04:18:35;13.95;;;9.82;;
42682;SDS011;28293;50.930;3.464;2024-03-17T04:21:04;14.82;;;10.30;;
42682;SDS011;28293;50.930;3.464;2024-03-17T04:23:34;18.42;;;10.70;;
42682;SDS011;28293;50.930;3.464;2024-03-17T04:26:00;12.82;;;9.52;;
42682;SDS011;28293;50.930;3.464;2024-03-17T04:28:26;11.98;;;8.95;;
42682;SDS011;28293;50.930;3.464;2024-03-17T04:30:52;15.30;;;9.77;;
42682;SDS011;28293;50.930;3.464;2024-03-17T04:33:18;15.93;;;10.68;;
42682;SDS011;28293;50.930;3.464;2024-03-17T04:35:43;14.15;;;9.50;;
42682;SDS011;28293;50.930;3.464;2024-03-17T04:38:09;14.38;;;9.85;;
42682;SDS011;28293;50.930;3.464;2024-03-17T04:40:42;13.30;;;9.90;;
42682;SDS011;28293;50.930;3.464;2024-03-17T04:43:08;14.10;;;8.85;;
42682;SDS011;28293;50.930;3.464;2024-03-17T04:45:34;12.85;;;9.07;;
42682;SDS011;28293;50.930;3.464;2024-03-17T04:48:00;14.95;;;9.68;;
42682;SDS011;28293;50.930;3.464;2024-03-17T04:50:25;15.65;;;9.15;;
42682;SDS011;28293;50.930;3.464;2024-03-17T04:52:51;14.13;;;10.00;;
42682;SDS011;28293;50.930;3.464;2024-03-17T04:55:17;13.45;;;9.13;;
42682;SDS011;28293;50.930;3.464;2024-03-17T04:57:44;15.13;;;9.90;;
42682;SDS011;28293;50.930;3.464;2024-03-17T05:00:10;14.68;;;9.43;;
42682;SDS011;28293;50.930;3.464;2024-03-17T05:02:37;17.92;;;9.30;;
42682;SDS011;28293;50.930;3.464;2024-03-17T05:05:03;15.40;;;9.68;;
42682;SDS011;28293;50.930;3.464;2024-03-17T05:07:30;15.00;;;9.48;;
42682;SDS011;28293;50.930;3.464;2024-03-17T05:09:56;12.95;;;9.20;;
42682;SDS011;28293;50.930;3.464;2024-03-17T05:12:22;15.88;;;8.60;;
42682;SDS011;28293;50.930;3.464;2024-03-17T05:14:48;14.95;;;9.48;;
42682;SDS011;28293;50.930;3.464;2024-03-17T05:17:14;17.48;;;9.60;;
42682;SDS011;28293;50.930;3.464;2024-03-17T05:19:39;15.23;;;9.23;;
42682;SDS011;28293;50.930;3.464;2024-03-17T05:22:05;17.75;;;10.55;;
42682;SDS011;28293;50.930;3.464;2024-03-17T05:24:31;15.70;;;9.40;;
42682;SDS011;28293;50.930;3.464;2024-03-17T05:26:56;16.05;;;10.25;;
42682;SDS011;28293;50.930;3.464;2024-03-17T05:29:22;16.02;;;9.75;;
42682;SDS011;28293;50.930;3.464;2024-03-17T05:31:48;12.35;;;9.48;;
42682;SDS011;28293;50.930;3.464;2024-03-17T05:34:15;15.30;;;8.95;;
42682;SDS011;28293;50.930;3.464;2024-03-17T05:36:40;12.02;;;8.23;;
42682;SDS011;28293;50.930;3.464;2024-03-17T05:39:06;12.60;;;8.20;;
42682;SDS011;28293;50.930;3.464;2024-03-17T05:41:32;16.25;;;8.32;;
42682;SDS011;28293;50.930;3.464;2024-03-17T05:43:57;15.85;;;8.63;;
42682;SDS011;28293;50.930;3.464;2024-03-17T05:46:23;16.02;;;10.02;;
42682;SDS011;28293;50.930;3.464;2024-03-17T05:48:53;13.82;;;8.80;;
42682;SDS011;28293;50.930;3.464;2024-03-17T05:51:19;13.43;;;8.13;;
42682;SDS011;28293;50.930;3.464;2024-03-17T05:53:44;13.13;;;8.57;;
42682;SDS011;28293;50.930;3.464;2024-03-17T05:56:10;15.77;;;8.70;;
42682;SDS011;28293;50.930;3.464;2024-03-17T05:58:37;12.70;;;8.27;;
42682;SDS011;28293;50.930;3.464;2024-03-17T06:01:04;14.88;;;8.55;;
42682;SDS011;28293;50.930;3.464;2024-03-17T06:03:32;10.65;;;7.90;;
42682;SDS011;28293;50.930;3.464;2024-03-17T06:06:00;13.98;;;8.48;;
42682;SDS011;28293;50.930;3.464;2024-03-17T06:08:27;14.38;;;8.00;;
42682;SDS011;28293;50.930;3.464;2024-03-17T06:10:53;13.73;;;9.23;;
42682;SDS011;28293;50.930;3.464;2024-03-17T06:13:18;13.15;;;8.25;;
42682;SDS011;28293;50.930;3.464;2024-03-17T06:15:44;14.02;;;8.52;;
42682;SDS011;28293;50.930;3.464;2024-03-17T06:18:12;12.10;;;8.23;;
42682;SDS011;28293;50.930;3.464;2024-03-17T06:20:46;14.80;;;8.57;;
42682;SDS011;28293;50.930;3.464;2024-03-17T06:23:12;12.65;;;8.43;;
42682;SDS011;28293;50.930;3.464;2024-03-17T06:25:45;12.93;;;7.93;;
42682;SDS011;28293;50.930;3.464;2024-03-17T06:28:12;14.30;;;8.75;;
42682;SDS011;28293;50.930;3.464;2024-03-17T06:30:42;14.18;;;8.15;;
42682;SDS011;28293;50.930;3.464;2024-03-17T06:33:15;12.25;;;7.80;;
42682;SDS011;28293;50.930;3.464;2024-03-17T06:35:44;11.88;;;8.05;;
42682;SDS011;28293;50.930;3.464;2024-03-17T06:38:11;15.13;;;8.90;;
42682;SDS011;28293;50.930;3.464;2024-03-17T06:40:37;11.45;;;8.80;;
42682;SDS011;28293;50.930;3.464;2024-03-17T06:43:03;12.23;;;8.40;;
42682;SDS011;28293;50.930;3.464;2024-03-17T06:45:29;12.63;;;8.27;;
42682;SDS011;28293;50.930;3.464;2024-03-17T06:47:55;13.00;;;8.27;;
42682;SDS011;28293;50.930;3.464;2024-03-17T06:50:21;14.95;;;8.98;;
42682;SDS011;28293;50.930;3.464;2024-03-17T06:52:47;13.88;;;8.40;;
42682;SDS011;28293;50.930;3.464;2024-03-17T06:55:12;12.23;;;7.97;;
42682;SDS011;28293;50.930;3.464;2024-03-17T06:57:38;13.27;;;7.88;;
42682;SDS011;28293;50.930;3.464;2024-03-17T07:00:08;11.82;;;8.20;;
42682;SDS011;28293;50.930;3.464;2024-03-17T07:02:39;13.80;;;8.20;;
42682;SDS011;28293;50.930;3.464;2024-03-17T07:05:11;14.40;;;8.57;;
42682;SDS011;28293;50.930;3.464;2024-03-17T07:07:39;12.32;;;8.60;;
42682;SDS011;28293;50.930;3.464;2024-03-17T07:10:05;12.82;;;8.27;;
42682;SDS011;28293;50.930;3.464;2024-03-17T07:12:31;13.52;;;8.70;;
42682;SDS011;28293;50.930;3.464;2024-03-17T07:14:57;12.55;;;8.13;;
42682;SDS011;28293;50.930;3.464;2024-03-17T07:17:22;12.80;;;7.97;;
42682;SDS011;28293;50.930;3.464;2024-03-17T07:19:48;12.80;;;7.68;;
42682;SDS011;28293;50.930;3.464;2024-03-17T07:22:14;14.35;;;8.68;;
42682;SDS011;28293;50.930;3.464;2024-03-17T07:24:40;15.43;;;8.82;;
42682;SDS011;28293;50.930;3.464;2024-03-17T07:27:05;14.25;;;8.35;;
42682;SDS011;28293;50.930;3.464;2024-03-17T07:29:35;16.35;;;8.98;;
42682;SDS011;28293;50.930;3.464;2024-03-17T07:32:00;16.17;;;8.63;;
42682;SDS011;28293;50.930;3.464;2024-03-17T07:34:30;13.93;;;9.18;;
42682;SDS011;28293;50.930;3.464;2024-03-17T07:36:56;15.50;;;8.93;;
42682;SDS011;28293;50.930;3.464;2024-03-17T07:39:22;18.13;;;9.00;;
42682;SDS011;28293;50.930;3.464;2024-03-17T07:41:47;13.50;;;8.75;;
42682;SDS011;28293;50.930;3.464;2024-03-17T07:44:13;14.52;;;9.18;;
42682;SDS011;28293;50.930;3.464;2024-03-17T07:46:38;15.30;;;8.73;;
42682;SDS011;28293;50.930;3.464;2024-03-17T07:49:04;15.55;;;8.48;;
42682;SDS011;28293;50.930;3.464;2024-03-17T07:51:31;14.00;;;8.57;;
42682;SDS011;28293;50.930;3.464;2024-03-17T07:53:59;14.00;;;8.52;;
42682;SDS011;28293;50.930;3.464;2024-03-17T07:56:24;14.15;;;8.95;;
42682;SDS011;28293;50.930;3.464;2024-03-17T07:58:50;17.05;;;8.65;;
42682;SDS011;28293;50.930;3.464;2024-03-17T08:01:16;14.68;;;8.63;;
42682;SDS011;28293;50.930;3.464;2024-03-17T08:03:44;14.30;;;8.70;;
42682;SDS011;28293;50.930;3.464;2024-03-17T08:06:11;16.88;;;9.35;;
42682;SDS011;28293;50.930;3.464;2024-03-17T08:08:37;16.75;;;8.63;;
42682;SDS011;28293;50.930;3.464;2024-03-17T08:11:03;14.23;;;9.40;;
42682;SDS011;28293;50.930;3.464;2024-03-17T08:13:32;17.77;;;9.38;;
42682;SDS011;28293;50.930;3.464;2024-03-17T08:16:05;17.67;;;9.57;;
42682;SDS011;28293;50.930;3.464;2024-03-17T08:18:32;15.30;;;9.77;;
42682;SDS011;28293;50.930;3.464;2024-03-17T08:20:59;16.60;;;9.43;;
42682;SDS011;28293;50.930;3.464;2024-03-17T08:23:26;14.73;;;10.45;;
42682;SDS011;28293;50.930;3.464;2024-03-17T08:28:21;15.88;;;10.02;;
42682;SDS011;28293;50.930;3.464;2024-03-17T08:30:51;16.00;;;10.43;;
42682;SDS011;28293;50.930;3.464;2024-03-17T08:33:24;16.75;;;10.13;;
42682;SDS011;28293;50.930;3.464;2024-03-17T08:35:56;17.92;;;10.80;;
42682;SDS011;28293;50.930;3.464;2024-03-17T08:38:23;15.30;;;9.45;;
42682;SDS011;28293;50.930;3.464;2024-03-17T08:40:50;16.92;;;10.15;;
42682;SDS011;28293;50.930;3.464;2024-03-17T08:43:20;16.45;;;9.88;;
42682;SDS011;28293;50.930;3.464;2024-03-17T08:45:55;16.85;;;10.73;;
42682;SDS011;28293;50.930;3.464;2024-03-17T08:48:29;18.02;;;10.20;;
42682;SDS011;28293;50.930;3.464;2024-03-17T08:50:55;15.95;;;9.90;;
42682;SDS011;28293;50.930;3.464;2024-03-17T08:53:22;19.52;;;11.15;;
42682;SDS011;28293;50.930;3.464;2024-03-17T08:55:48;15.20;;;9.18;;
42682;SDS011;28293;50.930;3.464;2024-03-17T08:58:14;15.23;;;9.48;;
42682;SDS011;28293;50.930;3.464;2024-03-17T09:00:40;16.40;;;9.57;;
42682;SDS011;28293;50.930;3.464;2024-03-17T09:03:06;13.23;;;8.90;;
42682;SDS011;28293;50.930;3.464;2024-03-17T09:05:35;16.80;;;9.63;;
42682;SDS011;28293;50.930;3.464;2024-03-17T09:08:01;17.33;;;9.35;;
42682;SDS011;28293;50.930;3.464;2024-03-17T09:10:27;14.32;;;8.55;;
42682;SDS011;28293;50.930;3.464;2024-03-17T09:12:53;13.75;;;8.25;;
42682;SDS011;28293;50.930;3.464;2024-03-17T09:15:19;16.98;;;8.77;;
42682;SDS011;28293;50.930;3.464;2024-03-17T09:17:45;19.27;;;9.18;;
42682;SDS011;28293;50.930;3.464;2024-03-17T09:20:11;16.50;;;9.70;;
42682;SDS011;28293;50.930;3.464;2024-03-17T09:22:39;14.23;;;8.98;;
42682;SDS011;28293;50.930;3.464;2024-03-17T09:25:06;16.17;;;8.45;;
42682;SDS011;28293;50.930;3.464;2024-03-17T09:27:39;15.63;;;8.37;;
42682;SDS011;28293;50.930;3.464;2024-03-17T09:30:05;14.98;;;8.48;;
42682;SDS011;28293;50.930;3.464;2024-03-17T09:32:34;14.85;;;9.02;;
42682;SDS011;28293;50.930;3.464;2024-03-17T09:35:03;15.52;;;8.80;;
42682;SDS011;28293;50.930;3.464;2024-03-17T09:37:30;15.25;;;10.18;;
42682;SDS011;28293;50.930;3.464;2024-03-17T09:39:56;18.00;;;9.55;;
42682;SDS011;28293;50.930;3.464;2024-03-17T09:42:23;15.40;;;9.93;;
42682;SDS011;28293;50.930;3.464;2024-03-17T09:44:49;14.65;;;8.75;;
42682;SDS011;28293;50.930;3.464;2024-03-17T09:47:20;14.82;;;9.57;;
42682;SDS011;28293;50.930;3.464;2024-03-17T09:49:47;15.40;;;9.60;;
42682;SDS011;28293;50.930;3.464;2024-03-17T09:52:23;14.77;;;9.52;;
42682;SDS011;28293;50.930;3.464;2024-03-17T09:54:58;16.40;;;8.77;;
42682;SDS011;28293;50.930;3.464;2024-03-17T09:57:25;14.43;;;8.70;;
42682;SDS011;28293;50.930;3.464;2024-03-17T09:59:54;14.43;;;9.35;;
42682;SDS011;28293;50.930;3.464;2024-03-17T10:02:21;16.33;;;8.75;;
42682;SDS011;28293;50.930;3.464;2024-03-17T10:04:47;16.90;;;8.93;;
42682;SDS011;28293;50.930;3.464;2024-03-17T10:07:13;14.05;;;8.85;;
42682;SDS011;28293;50.930;3.464;2024-03-17T10:09:42;15.75;;;9.38;;
42682;SDS011;28293;50.930;3.464;2024-03-17T10:12:26;15.80;;;8.50;;
42682;SDS011;28293;50.930;3.464;2024-03-17T10:14:59;13.48;;;7.85;;
42682;SDS011;28293;50.930;3.464;2024-03-17T10:17:30;15.57;;;8.75;;
42682;SDS011;28293;50.930;3.464;2024-03-17T10:20:16;15.10;;;8.23;;
42682;SDS011;28293;50.930;3.464;2024-03-17T10:25:29;16.15;;;8.55;;
42682;SDS011;28293;50.930;3.464;2024-03-17T10:27:56;15.13;;;8.52;;
42682;SDS011;28293;50.930;3.464;2024-03-17T10:30:23;12.95;;;7.45;;
42682;SDS011;28293;50.930;3.464;2024-03-17T10:33:00;14.10;;;7.53;;
42682;SDS011;28293;50.930;3.464;2024-03-17T10:35:33;17.77;;;7.68;;
42682;SDS011;28293;50.930;3.464;2024-03-17T10:38:03;16.38;;;8.18;;
42682;SDS011;28293;50.930;3.464;2024-03-17T10:40:30;16.25;;;7.53;;
42682;SDS011;28293;50.930;3.464;2024-03-17T10:43:00;15.68;;;7.63;;
42682;SDS011;28293;50.930;3.464;2024-03-17T10:45:27;13.88;;;7.65;;
42682;SDS011;28293;50.930;3.464;2024-03-17T10:47:58;16.90;;;8.00;;
42682;SDS011;28293;50.930;3.464;2024-03-17T10:50:25;12.18;;;7.15;;
42682;SDS011;28293;50.930;3.464;2024-03-17T10:52:55;15.57;;;7.20;;
42682;SDS011;28293;50.930;3.464;2024-03-17T10:55:41;14.10;;;7.40;;
42682;SDS011;28293;50.930;3.464;2024-03-17T10:58:23;15.75;;;6.90;;
42682;SDS011;28293;50.930;3.464;2024-03-17T11:01:03;13.75;;;7.15;;
42682;SDS011;28293;50.930;3.464;2024-03-17T11:03:32;15.23;;;7.22;;
42682;SDS011;28293;50.930;3.464;2024-03-17T11:05:58;13.85;;;7.63;;
42682;SDS011;28293;50.930;3.464;2024-03-17T11:08:26;12.50;;;6.35;;
42682;SDS011;28293;50.930;3.464;2024-03-17T11:10:52;11.77;;;6.75;;
42682;SDS011;28293;50.930;3.464;2024-03-17T11:13:24;12.52;;;6.78;;
42682;SDS011;28293;50.930;3.464;2024-03-17T11:15:53;14.25;;;6.38;;
42682;SDS011;28293;50.930;3.464;2024-03-17T11:21:07;15.20;;;6.13;;
42682;SDS011;28293;50.930;3.464;2024-03-17T11:23:46;14.80;;;6.03;;
42682;SDS011;28293;50.930;3.464;2024-03-17T11:26:28;12.20;;;5.78;;
42682;SDS011;28293;50.930;3.464;2024-03-17T11:31:42;12.90;;;5.78;;
42682;SDS011;28293;50.930;3.464;2024-03-17T11:36:58;13.80;;;6.00;;
42682;SDS011;28293;50.930;3.464;2024-03-17T11:42:26;15.15;;;6.18;;
42682;SDS011;28293;50.930;3.464;2024-03-17T11:44:56;18.30;;;7.10;;
42682;SDS011;28293;50.930;3.464;2024-03-17T11:47:41;13.87;;;5.97;;
42682;SDS011;28293;50.930;3.464;2024-03-17T11:50:08;13.85;;;6.28;;
42682;SDS011;28293;50.930;3.464;2024-03-17T11:52:35;13.13;;;5.93;;
42682;SDS011;28293;50.930;3.464;2024-03-17T11:55:02;13.23;;;6.07;;
42682;SDS011;28293;50.930;3.464;2024-03-17T11:57:27;13.65;;;5.80;;
42682;SDS011;28293;50.930;3.464;2024-03-17T11:59:54;14.52;;;6.20;;
42682;SDS011;28293;50.930;3.464;2024-03-17T12:02:24;12.55;;;6.15;;
42682;SDS011;28293;50.930;3.464;2024-03-17T12:04:56;14.57;;;6.27;;
42682;SDS011;28293;50.930;3.464;2024-03-17T12:07:23;12.70;;;6.15;;
42682;SDS011;28293;50.930;3.464;2024-03-17T12:09:52;13.02;;;5.13;;
42682;SDS011;28293;50.930;3.464;2024-03-17T12:12:22;12.38;;;5.13;;
42682;SDS011;28293;50.930;3.464;2024-03-17T12:14:49;11.60;;;5.57;;
42682;SDS011;28293;50.930;3.464;2024-03-17T12:17:23;12.52;;;5.07;;
42682;SDS011;28293;50.930;3.464;2024-03-17T12:19:49;12.20;;;5.10;;
42682;SDS011;28293;50.930;3.464;2024-03-17T12:22:19;12.85;;;5.03;;
42682;SDS011;28293;50.930;3.464;2024-03-17T12:24:51;10.82;;;4.10;;
42682;SDS011;28293;50.930;3.464;2024-03-17T12:27:21;8.13;;;3.05;;
42682;SDS011;28293;50.930;3.464;2024-03-17T12:29:48;9.40;;;3.75;;
42682;SDS011;28293;50.930;3.464;2024-03-17T12:32:16;10.00;;;3.70;;
42682;SDS011;28293;50.930;3.464;2024-03-17T12:34:47;7.00;;;3.08;;
42682;SDS011;28293;50.930;3.464;2024-03-17T12:37:18;10.40;;;3.63;;
42682;SDS011;28293;50.930;3.464;2024-03-17T12:39:47;9.43;;;3.88;;
42682;SDS011;28293;50.930;3.464;2024-03-17T12:42:14;9.35;;;3.35;;
42682;SDS011;28293;50.930;3.464;2024-03-17T12:44:50;10.35;;;3.10;;
42682;SDS011;28293;50.930;3.464;2024-03-17T12:49:59;11.27;;;3.63;;
42682;SDS011;28293;50.930;3.464;2024-03-17T12:52:29;9.75;;;3.63;;
42682;SDS011;28293;50.930;3.464;2024-03-17T12:55:05;11.00;;;3.38;;
42682;SDS011;28293;50.930;3.464;2024-03-17T12:57:51;10.15;;;3.25;;
42682;SDS011;28293;50.930;3.464;2024-03-17T13:00:45;11.70;;;3.33;;
42682;SDS011;28293;50.930;3.464;2024-03-17T13:03:20;9.55;;;3.17;;
42682;SDS011;28293;50.930;3.464;2024-03-17T13:05:51;9.23;;;3.38;;
42682;SDS011;28293;50.930;3.464;2024-03-17T13:08:17;8.23;;;2.95;;
42682;SDS011;28293;50.930;3.464;2024-03-17T13:10:43;12.27;;;4.38;;
42682;SDS011;28293;50.930;3.464;2024-03-17T13:13:09;10.25;;;3.70;;
42682;SDS011;28293;50.930;3.464;2024-03-17T13:15:36;11.43;;;4.10;;
42682;SDS011;28293;50.930;3.464;2024-03-17T13:18:02;13.18;;;3.80;;
42682;SDS011;28293;50.930;3.464;2024-03-17T13:20:31;10.50;;;3.72;;
42682;SDS011;28293;50.930;3.464;2024-03-17T13:22:57;9.02;;;3.63;;
42682;SDS011;28293;50.930;3.464;2024-03-17T13:25:25;10.68;;;4.00;;
42682;SDS011;28293;50.930;3.464;2024-03-17T13:27:55;9.65;;;3.70;;
42682;SDS011;28293;50.930;3.464;2024-03-17T13:30:21;10.27;;;3.78;;
42682;SDS011;28293;50.930;3.464;2024-03-17T13:32:49;12.48;;;3.75;;
42682;SDS011;28293;50.930;3.464;2024-03-17T13:35:21;10.50;;;4.63;;
42682;SDS011;28293;50.930;3.464;2024-03-17T13:37:49;10.80;;;3.83;;
42682;SDS011;28293;50.930;3.464;2024-03-17T13:40:15;9.75;;;3.72;;
42682;SDS011;28293;50.930;3.464;2024-03-17T13:42:44;11.48;;;4.00;;
42682;SDS011;28293;50.930;3.464;2024-03-17T13:45:14;12.65;;;4.55;;
42682;SDS011;28293;50.930;3.464;2024-03-17T13:47:41;9.95;;;3.95;;
42682;SDS011;28293;50.930;3.464;2024-03-17T13:50:29;10.07;;;4.07;;
42682;SDS011;28293;50.930;3.464;2024-03-17T13:52:55;9.98;;;4.35;;
42682;SDS011;28293;50.930;3.464;2024-03-17T13:55:22;9.38;;;4.03;;
42682;SDS011;28293;50.930;3.464;2024-03-17T13:57:53;8.27;;;3.35;;
42682;SDS011;28293;50.930;3.464;2024-03-17T14:00:21;10.27;;;3.42;;
42682;SDS011;28293;50.930;3.464;2024-03-17T14:02:47;10.05;;;3.95;;
42682;SDS011;28293;50.930;3.464;2024-03-17T14:05:18;10.30;;;3.95;;
42682;SDS011;28293;50.930;3.464;2024-03-17T14:07:48;8.48;;;3.92;;
42682;SDS011;28293;50.930;3.464;2024-03-17T14:10:16;10.68;;;4.15;;
42682;SDS011;28293;50.930;3.464;2024-03-17T14:12:43;11.40;;;4.25;;
42682;SDS011;28293;50.930;3.464;2024-03-17T14:15:09;13.13;;;3.85;;
42682;SDS011;28293;50.930;3.464;2024-03-17T14:17:46;8.80;;;4.05;;
42682;SDS011;28293;50.930;3.464;2024-03-17T14:20:14;12.38;;;4.40;;
42682;SDS011;28293;50.930;3.464;2024-03-17T14:22:43;9.00;;;4.05;;
42682;SDS011;28293;50.930;3.464;2024-03-17T14:25:12;13.10;;;4.20;;
42682;SDS011;28293;50.930;3.464;2024-03-17T14:27:40;9.27;;;4.32;;
42682;SDS011;28293;50.930;3.464;2024-03-17T14:30:07;11.18;;;4.93;;
42682;SDS011;28293;50.930;3.464;2024-03-17T14:32:33;11.30;;;4.82;;
42682;SDS011;28293;50.930;3.464;2024-03-17T14:34:59;10.32;;;4.93;;
42682;SDS011;28293;50.930;3.464;2024-03-17T14:37:25;10.52;;;5.00;;
42682;SDS011;28293;50.930;3.464;2024-03-17T14:39:51;10.88;;;6.00;;
42682;SDS011;28293;50.930;3.464;2024-03-17T14:42:18;12.02;;;5.03;;
42682;SDS011;28293;50.930;3.464;2024-03-17T14:44:44;12.85;;;6.13;;
42682;SDS011;28293;50.930;3.464;2024-03-17T14:47:11;10.63;;;5.18;;
42682;SDS011;28293;50.930;3.464;2024-03-17T14:49:37;10.82;;;4.88;;
42682;SDS011;28293;50.930;3.464;2024-03-17T14:52:02;14.02;;;5.70;;
42682;SDS011;28293;50.930;3.464;2024-03-17T14:54:30;12.95;;;6.22;;
42682;SDS011;28293;50.930;3.464;2024-03-17T14:56:56;12.38;;;5.10;;